SAS031 ENBO-ENVA
Flight info
| Callsign | SAS031 |
|---|---|
| Flight time | 0h 40m |
| Altitude | 34000 |
| Route | DISMU DCT NUPGO |
| Aircraft | B738/M-SDFGHIRWXYZ/LB1 |
Departure
| Time | 2026-04-27 10:36 |
|---|---|
| Airport | Bodø Airport (ENBO) |
Arrival
| Time | 2026-04-27 11:17 |
|---|---|
| Airport | Trondheim Airport, Værnes (ENVA) |
| Time | Latitude | Longitude | Altitude | Speed | Heading |
|---|---|---|---|---|---|
| 2026-04-27 10:05 | 67.27145 | 14.36680 | 43 ft | 0 kts | 34° |
| 2026-04-27 10:29 | 67.27134 | 14.36660 | 45 ft | 3 kts | 34° |
| 2026-04-27 10:29 | 67.27118 | 14.36631 | 45 ft | 3 kts | 34° |
| 2026-04-27 10:29 | 67.27116 | 14.36628 | 45 ft | 0 kts | 40° |
| 2026-04-27 10:31 | 67.27111 | 14.36649 | 45 ft | 2 kts | 136° |
| 2026-04-27 10:31 | 67.27108 | 14.36656 | 45 ft | 1 kts | 136° |
| 2026-04-27 10:31 | 67.27089 | 14.36710 | 46 ft | 7 kts | 127° |
| 2026-04-27 10:31 | 67.27077 | 14.36870 | 47 ft | 11 kts | 84° |
| 2026-04-27 10:32 | 67.27087 | 14.37019 | 46 ft | 5 kts | 78° |
| 2026-04-27 10:32 | 67.27092 | 14.37080 | 50 ft | 3 kts | 78° |
| 2026-04-27 10:32 | 67.27099 | 14.37159 | 51 ft | 7 kts | 77° |
| 2026-04-27 10:32 | 67.27110 | 14.37291 | 52 ft | 8 kts | 77° |
| 2026-04-27 10:33 | 67.27121 | 14.37421 | 50 ft | 7 kts | 77° |
| 2026-04-27 10:33 | 67.27131 | 14.37541 | 49 ft | 7 kts | 77° |
| 2026-04-27 10:33 | 67.27141 | 14.37659 | 54 ft | 7 kts | 78° |
| 2026-04-27 10:33 | 67.27152 | 14.37789 | 56 ft | 8 kts | 78° |
| 2026-04-27 10:34 | 67.27162 | 14.38029 | 51 ft | 16 kts | 88° |
| 2026-04-27 10:34 | 67.27161 | 14.38207 | 50 ft | 7 kts | 91° |
| 2026-04-27 10:34 | 67.27131 | 14.38360 | 53 ft | 9 kts | 146° |
| 2026-04-27 10:34 | 67.27079 | 14.38349 | 54 ft | 7 kts | 233° |
| 2026-04-27 10:35 | 67.27071 | 14.38296 | 53 ft | 0 kts | 253° |
| 2026-04-27 10:35 | 67.27063 | 14.38234 | 50 ft | 15 kts | 253° |
| 2026-04-27 10:35 | 67.27002 | 14.37463 | 47 ft | 75 kts | 258° |
| 2026-04-27 10:36 | 67.26849 | 14.35647 | 36 ft | 130 kts | 258° |
| 2026-04-27 10:36 | 67.26604 | 14.33096 | 304 ft | 152 kts | 258° |
| 2026-04-27 10:36 | 67.26386 | 14.30400 | 749 ft | 157 kts | 272° |
| 2026-04-27 10:36 | 67.26389 | 14.27664 | 1594 ft | 144 kts | 276° |
| 2026-04-27 10:37 | 67.26335 | 14.25090 | 2206 ft | 155 kts | 264° |
| 2026-04-27 10:37 | 67.26045 | 14.22123 | 2504 ft | 179 kts | 257° |
| 2026-04-27 10:37 | 67.25434 | 14.19124 | 2935 ft | 205 kts | 229° |
| 2026-04-27 10:37 | 67.24218 | 14.16965 | 3516 ft | 222 kts | 212° |
| 2026-04-27 10:38 | 67.22789 | 14.15084 | 4009 ft | 240 kts | 211° |
| 2026-04-27 10:38 | 67.21308 | 14.12995 | 4854 ft | 247 kts | 214° |
| 2026-04-27 10:38 | 67.19797 | 14.10572 | 5501 ft | 263 kts | 216° |
| 2026-04-27 10:38 | 67.18254 | 14.07912 | 6370 ft | 270 kts | 217° |
| 2026-04-27 10:39 | 67.16688 | 14.05189 | 7267 ft | 274 kts | 217° |
| 2026-04-27 10:39 | 67.15085 | 14.02446 | 8173 ft | 279 kts | 216° |
| 2026-04-27 10:39 | 67.13453 | 13.99688 | 9109 ft | 283 kts | 216° |
| 2026-04-27 10:39 | 67.11793 | 13.96914 | 10050 ft | 287 kts | 214° |
| 2026-04-27 10:40 | 67.09951 | 13.94699 | 10732 ft | 303 kts | 200° |
| 2026-04-27 10:40 | 67.07855 | 13.93300 | 11233 ft | 320 kts | 196° |
| 2026-04-27 10:40 | 67.05647 | 13.91842 | 11882 ft | 333 kts | 197° |
| 2026-04-27 10:40 | 67.03382 | 13.90271 | 12678 ft | 340 kts | 198° |
| 2026-04-27 10:41 | 67.01073 | 13.88627 | 13458 ft | 349 kts | 199° |
| 2026-04-27 10:41 | 66.98709 | 13.86945 | 14274 ft | 357 kts | 199° |
| 2026-04-27 10:41 | 66.96284 | 13.85258 | 15115 ft | 366 kts | 199° |
| 2026-04-27 10:41 | 66.93795 | 13.83560 | 15855 ft | 374 kts | 200° |
| 2026-04-27 10:42 | 66.91239 | 13.81824 | 16487 ft | 385 kts | 200° |
| 2026-04-27 10:42 | 66.88647 | 13.79650 | 17231 ft | 389 kts | 208° |
| 2026-04-27 10:42 | 66.86116 | 13.77016 | 17953 ft | 396 kts | 210° |
| 2026-04-27 10:42 | 66.83558 | 13.74254 | 18663 ft | 404 kts | 211° |
| 2026-04-27 10:43 | 66.80950 | 13.71461 | 19335 ft | 410 kts | 210° |
| 2026-04-27 10:43 | 66.78290 | 13.68697 | 20055 ft | 416 kts | 210° |
| 2026-04-27 10:43 | 66.75585 | 13.65938 | 20749 ft | 422 kts | 210° |
| 2026-04-27 10:43 | 66.72807 | 13.63320 | 21466 ft | 433 kts | 203° |
| 2026-04-27 10:44 | 66.69764 | 13.62288 | 22049 ft | 451 kts | 181° |
| 2026-04-27 10:44 | 66.66650 | 13.63675 | 22757 ft | 461 kts | 161° |
| 2026-04-27 10:44 | 66.63781 | 13.67272 | 23418 ft | 463 kts | 142° |
| 2026-04-27 10:44 | 66.61321 | 13.72464 | 23936 ft | 463 kts | 133° |
| 2026-04-27 10:45 | 66.58785 | 13.77483 | 24558 ft | 469 kts | 147° |
| 2026-04-27 10:45 | 66.55748 | 13.80501 | 25134 ft | 472 kts | 170° |
| 2026-04-27 10:45 | 66.52500 | 13.80799 | 25659 ft | 464 kts | 194° |
| 2026-04-27 10:45 | 66.49500 | 13.78366 | 26227 ft | 445 kts | 218° |
| 2026-04-27 10:46 | 66.47061 | 13.73899 | 26732 ft | 431 kts | 232° |
| 2026-04-27 10:46 | 66.44794 | 13.68945 | 27220 ft | 434 kts | 231° |
| 2026-04-27 10:46 | 66.42322 | 13.64381 | 27696 ft | 454 kts | 218° |
| 2026-04-27 10:46 | 66.39439 | 13.60889 | 28061 ft | 468 kts | 211° |
| 2026-04-27 10:47 | 66.36368 | 13.58042 | 28588 ft | 474 kts | 206° |
| 2026-04-27 10:47 | 66.33224 | 13.55537 | 29184 ft | 473 kts | 207° |
| 2026-04-27 10:47 | 66.30332 | 13.52054 | 29751 ft | 451 kts | 225° |
| 2026-04-27 10:47 | 66.27921 | 13.47266 | 30443 ft | 442 kts | 230° |
| 2026-04-27 10:48 | 66.25565 | 13.42393 | 30954 ft | 441 kts | 230° |
| 2026-04-27 10:48 | 66.23153 | 13.37647 | 31385 ft | 448 kts | 223° |
| 2026-04-27 10:48 | 66.20293 | 13.34293 | 31945 ft | 464 kts | 203° |
| 2026-04-27 10:48 | 66.17156 | 13.32292 | 32445 ft | 465 kts | 201° |
| 2026-04-27 10:49 | 66.14116 | 13.29786 | 32947 ft | 457 kts | 209° |
| 2026-04-27 10:49 | 66.11214 | 13.26692 | 33451 ft | 453 kts | 211° |
| 2026-04-27 10:49 | 66.08312 | 13.23637 | 34001 ft | 454 kts | 208° |
| 2026-04-27 10:49 | 66.05298 | 13.20913 | 34360 ft | 459 kts | 205° |
| 2026-04-27 10:50 | 65.99171 | 13.16119 | 34334 ft | 457 kts | 204° |
| 2026-04-27 10:50 | 65.93164 | 13.11017 | 34382 ft | 457 kts | 206° |
| 2026-04-27 10:51 | 65.87200 | 13.05790 | 34394 ft | 455 kts | 205° |
| 2026-04-27 10:51 | 65.81198 | 13.00790 | 34371 ft | 455 kts | 205° |
| 2026-04-27 10:52 | 65.75203 | 12.95770 | 34383 ft | 456 kts | 205° |
| 2026-04-27 10:52 | 65.69213 | 12.90726 | 34352 ft | 456 kts | 205° |
| 2026-04-27 10:53 | 65.60202 | 12.83252 | 34384 ft | 455 kts | 205° |
| 2026-04-27 10:54 | 65.54192 | 12.78281 | 34406 ft | 458 kts | 205° |
| 2026-04-27 10:54 | 65.48180 | 12.73337 | 34398 ft | 456 kts | 205° |
| 2026-04-27 10:55 | 65.42180 | 12.68426 | 34413 ft | 457 kts | 205° |
| 2026-04-27 10:55 | 65.36173 | 12.63543 | 34374 ft | 451 kts | 206° |
| 2026-04-27 10:56 | 65.30211 | 12.58704 | 34384 ft | 455 kts | 206° |
| 2026-04-27 10:56 | 65.24231 | 12.53879 | 34387 ft | 453 kts | 206° |
| 2026-04-27 10:57 | 65.18242 | 12.49076 | 34402 ft | 453 kts | 205° |
| 2026-04-27 10:57 | 65.12251 | 12.44298 | 34350 ft | 449 kts | 206° |
| 2026-04-27 10:58 | 65.06314 | 12.39567 | 34386 ft | 448 kts | 206° |
| 2026-04-27 10:58 | 65.00384 | 12.34873 | 34339 ft | 451 kts | 206° |
| 2026-04-27 10:58 | 64.98402 | 12.33305 | 33795 ft | 456 kts | 206° |
| 2026-04-27 10:59 | 64.95382 | 12.30923 | 33282 ft | 457 kts | 206° |
| 2026-04-27 10:59 | 64.92369 | 12.28562 | 32786 ft | 457 kts | 206° |
| 2026-04-27 10:59 | 64.89353 | 12.26206 | 32289 ft | 457 kts | 206° |
| 2026-04-27 11:00 | 64.83312 | 12.21486 | 31267 ft | 458 kts | 205° |
| 2026-04-27 11:00 | 64.80283 | 12.19125 | 30766 ft | 459 kts | 205° |
| 2026-04-27 11:00 | 64.77243 | 12.16766 | 30196 ft | 460 kts | 205° |
| 2026-04-27 11:00 | 64.74211 | 12.14423 | 29636 ft | 459 kts | 205° |
| 2026-04-27 11:01 | 64.71184 | 12.12090 | 29124 ft | 457 kts | 205° |
| 2026-04-27 11:01 | 64.68170 | 12.09767 | 28583 ft | 457 kts | 205° |
| 2026-04-27 11:01 | 64.65156 | 12.07447 | 28047 ft | 455 kts | 205° |
| 2026-04-27 11:01 | 64.62153 | 12.05141 | 27501 ft | 454 kts | 204° |
| 2026-04-27 11:02 | 64.59154 | 12.02845 | 26955 ft | 454 kts | 204° |
| 2026-04-27 11:02 | 64.56156 | 12.00557 | 26411 ft | 453 kts | 204° |
| 2026-04-27 11:02 | 64.53162 | 11.98278 | 25843 ft | 451 kts | 204° |
| 2026-04-27 11:02 | 64.50201 | 11.96034 | 25286 ft | 443 kts | 204° |
| 2026-04-27 11:03 | 64.47257 | 11.93809 | 24705 ft | 435 kts | 204° |
| 2026-04-27 11:03 | 64.44399 | 11.91649 | 24181 ft | 429 kts | 204° |
| 2026-04-27 11:03 | 64.41578 | 11.89513 | 23577 ft | 424 kts | 204° |
| 2026-04-27 11:03 | 64.38797 | 11.87411 | 23010 ft | 417 kts | 204° |
| 2026-04-27 11:04 | 64.36057 | 11.85352 | 22461 ft | 411 kts | 204° |
| 2026-04-27 11:04 | 64.33359 | 11.83332 | 21923 ft | 405 kts | 204° |
| 2026-04-27 11:04 | 64.30669 | 11.81316 | 21372 ft | 408 kts | 204° |
| 2026-04-27 11:04 | 64.27969 | 11.79289 | 20827 ft | 409 kts | 204° |
| 2026-04-27 11:05 | 64.25254 | 11.77258 | 20272 ft | 411 kts | 204° |
| 2026-04-27 11:05 | 64.22525 | 11.75226 | 19699 ft | 414 kts | 203° |
| 2026-04-27 11:05 | 64.19777 | 11.73188 | 19119 ft | 416 kts | 203° |
| 2026-04-27 11:05 | 64.17012 | 11.71148 | 18492 ft | 418 kts | 203° |
| 2026-04-27 11:06 | 64.14243 | 11.69106 | 17903 ft | 418 kts | 203° |
| 2026-04-27 11:06 | 64.11490 | 11.67005 | 17350 ft | 415 kts | 205° |
| 2026-04-27 11:06 | 64.08802 | 11.64660 | 16779 ft | 412 kts | 207° |
| 2026-04-27 11:06 | 64.06159 | 11.62155 | 16237 ft | 410 kts | 208° |
| 2026-04-27 11:07 | 64.03526 | 11.59665 | 15677 ft | 410 kts | 207° |
| 2026-04-27 11:07 | 64.00879 | 11.57276 | 15111 ft | 409 kts | 205° |
| 2026-04-27 11:07 | 63.98220 | 11.54970 | 14524 ft | 406 kts | 205° |
| 2026-04-27 11:07 | 63.95614 | 11.52729 | 13918 ft | 395 kts | 205° |
| 2026-04-27 11:08 | 63.93083 | 11.50524 | 13330 ft | 384 kts | 205° |
| 2026-04-27 11:08 | 63.90634 | 11.48360 | 12778 ft | 372 kts | 206° |
| 2026-04-27 11:08 | 63.88259 | 11.46251 | 12251 ft | 361 kts | 205° |
| 2026-04-27 11:08 | 63.85950 | 11.44216 | 11713 ft | 351 kts | 205° |
| 2026-04-27 11:09 | 63.83674 | 11.42219 | 10846 ft | 352 kts | 205° |
| 2026-04-27 11:09 | 63.81396 | 11.40228 | 10129 ft | 348 kts | 205° |
| 2026-04-27 11:09 | 63.79190 | 11.38309 | 9774 ft | 332 kts | 205° |
| 2026-04-27 11:09 | 63.77084 | 11.36483 | 9480 ft | 317 kts | 204° |
| 2026-04-27 11:10 | 63.75027 | 11.35005 | 9247 ft | 304 kts | 197° |
| 2026-04-27 11:10 | 63.73000 | 11.33964 | 9106 ft | 295 kts | 195° |
| 2026-04-27 11:10 | 63.71003 | 11.33029 | 8883 ft | 292 kts | 194° |
| 2026-04-27 11:10 | 63.68995 | 11.32082 | 8646 ft | 290 kts | 194° |
| 2026-04-27 11:11 | 63.67035 | 11.31121 | 8408 ft | 288 kts | 195° |
| 2026-04-27 11:11 | 63.65078 | 11.30141 | 8000 ft | 288 kts | 195° |
| 2026-04-27 11:11 | 63.63178 | 11.29186 | 7852 ft | 273 kts | 194° |
| 2026-04-27 11:11 | 63.61367 | 11.28285 | 7631 ft | 263 kts | 194° |
| 2026-04-27 11:12 | 63.59594 | 11.27399 | 7321 ft | 259 kts | 195° |
| 2026-04-27 11:12 | 63.57869 | 11.26383 | 7004 ft | 255 kts | 198° |
| 2026-04-27 11:12 | 63.56168 | 11.25246 | 6568 ft | 255 kts | 199° |
| 2026-04-27 11:12 | 63.54480 | 11.24102 | 6158 ft | 254 kts | 199° |
| 2026-04-27 11:13 | 63.52785 | 11.22989 | 5680 ft | 251 kts | 198° |
| 2026-04-27 11:13 | 63.51136 | 11.21938 | 5212 ft | 241 kts | 198° |
| 2026-04-27 11:13 | 63.49554 | 11.20936 | 4722 ft | 232 kts | 199° |
| 2026-04-27 11:13 | 63.48112 | 11.19574 | 4187 ft | 216 kts | 216° |
| 2026-04-27 11:14 | 63.47040 | 11.17525 | 3748 ft | 192 kts | 233° |
| 2026-04-27 11:14 | 63.46322 | 11.15199 | 3310 ft | 173 kts | 247° |
| 2026-04-27 11:14 | 63.45896 | 11.12798 | 2914 ft | 160 kts | 259° |
| 2026-04-27 11:14 | 63.45717 | 11.10501 | 2551 ft | 144 kts | 270° |
| 2026-04-27 11:15 | 63.45679 | 11.08286 | 2110 ft | 141 kts | 274° |
| 2026-04-27 11:15 | 63.45683 | 11.06141 | 1662 ft | 134 kts | 276° |
| 2026-04-27 11:15 | 63.45697 | 11.04072 | 1253 ft | 130 kts | 274° |
| 2026-04-27 11:15 | 63.45710 | 11.02074 | 947 ft | 127 kts | 272° |
| 2026-04-27 11:16 | 63.45719 | 11.00115 | 705 ft | 125 kts | 271° |
| 2026-04-27 11:16 | 63.45722 | 10.98167 | 497 ft | 125 kts | 272° |
| 2026-04-27 11:16 | 63.45763 | 10.96191 | 300 ft | 129 kts | 271° |
| 2026-04-27 11:16 | 63.45754 | 10.94221 | 108 ft | 124 kts | 269° |
| 2026-04-27 11:17 | 63.45762 | 10.92515 | 42 ft | 86 kts | 270° |
| 2026-04-27 11:17 | 63.45763 | 10.91722 | 37 ft | 30 kts | 269° |
| 2026-04-27 11:17 | 63.45677 | 10.91518 | 37 ft | 13 kts | 181° |
| 2026-04-27 11:17 | 63.45603 | 10.91557 | 38 ft | 11 kts | 120° |
| 2026-04-27 11:18 | 63.45595 | 10.91762 | 38 ft | 14 kts | 91° |
| 2026-04-27 11:18 | 63.45592 | 10.91964 | 38 ft | 11 kts | 111° |
| 2026-04-27 11:18 | 63.45532 | 10.91999 | 38 ft | 8 kts | 180° |
| 2026-04-27 11:18 | 63.45499 | 10.91999 | 38 ft | 0 kts | 180° |